Latest Coastal Weather Observations for Gold Coast Seaway

IDQ60701

Issued at 9:32 pm EST Friday 9 December 2022 (issued every 10 minutes, with the page automatically refreshed every 10 minutes)

About coastal observations | Map of coastal stations | Coastal observations for QLD | Marine services | Other Formats
Station Details ID: 040764 Name: GOLD COAST SEAWAY Lat: -27.94 Lon: 153.43 Height: 2.98 m
Data from the previous 72 hours. | See also: Recent months at Gold Coast Seaway
Date/Time
EST
Wind Sea
Height
m
Swell Vis
km
Cloud Weather Temp
°C
Press
MSL
hPa
Rain since
9am
mm
Dir  Spd
kts
Gust
kts
Height
m
Period
s
Dir
09/09:30pm E 11 13 - - - - - - - 22.2 1013.6 0.0
09/09:00pm E 11 13 - - - - - - - 22.2 1013.5 0.0
09/08:30pm E 11 14 - - - - - - - 22.1 1013.2 0.0
09/08:00pm E 11 15 - - - - - - - 22.2 1013.0 0.0
09/07:30pm ESE 13 15 - - - - - - - 22.2 1012.3 0.0
09/07:00pm ESE 12 16 - - - - - - - 22.1 1011.9 0.0
09/06:30pm ESE 13 15 - - - - - - - 22.2 1011.8 0.0
09/06:00pm ESE 13 15 - - - - - - - 22.2 1011.4 0.0
09/05:30pm ESE 13 16 - - - - - - - 22.1 1010.9 0.0
09/05:00pm ESE 13 15 - - - - - - - 22.3 1010.5 0.0
09/04:30pm ESE 13 17 - - - - - - - 22.3 1010.4 0.0
09/04:00pm ESE 13 16 - - - - - - - 22.4 1010.1 0.0
09/03:30pm ESE 13 15 - - - - - - - 22.4 1010.3 0.0
09/03:00pm ESE 11 13 - - - - - - - 22.7 1010.4 0.0
09/02:30pm ESE 13 15 - - - - - - - 22.9 1010.5 0.0
09/02:00pm ESE 14 17 - - - - - - - 23.3 1010.7 0.0
09/01:30pm ESE 13 15 - - - - - - - 23.0 1010.9 0.0
09/01:00pm ESE 13 16 - - - - - - - 23.1 1011.1 0.0
09/12:30pm ESE 14 17 - - - - - - - 23.3 1011.4 0.0
09/12:00pm ESE 15 18 - - - - - - - 24.1 1011.5 0.0
09/11:30am SE 15 18 - - - - - - - 24.2 1011.7 0.0
09/11:00am SE 16 20 - - - - - - - 24.6 1011.8 0.0
09/10:30am SE 17 19 - - - - - - - 23.8 1011.9 0.0
09/10:00am SE 17 20 - - - - - - - 24.0 1011.8 0.0
09/09:30am SE 18 21 - - - - - - - 22.8 1011.6 0.0
09/09:00am SE 18 21 - - - - - - - 22.5 1011.7 0.0
09/08:30am SE 18 22 - - - - - - - 23.3 1011.7 0.0
09/08:00am SE 18 24 - - - - - - - 23.6 1011.4 0.0
09/07:30am SE 17 23 - - - - - - - 23.7 1011.4 0.0
09/07:00am SSE 13 18 - - - - - - - 22.1 1011.1 0.0
09/06:30am S 12 17 - - - - - - - 21.4 1010.6 0.0
09/06:00am S 14 19 - - - - - - - 21.3 1010.0 0.0
09/05:30am S 11 18 - - - - - - - 21.1 1009.6 0.0
09/05:00am S 12 17 - - - - - - - 20.9 1009.3 0.0
09/04:30am S 13 19 - - - - - - - 21.2 1009.0 0.0
09/04:00am S 12 20 - - - - - - - 21.2 1008.8 0.0
09/03:30am S 12 18 - - - - - - - 21.2 1008.6 0.0
09/03:00am S 12 21 - - - - - - - 21.2 1008.2 0.0
09/02:30am S 14 20 - - - - - - - 21.4 1007.9 0.0
09/02:00am S 15 24 - - - - - - - 22.0 1007.7 0.0
09/01:30am SSE 17 25 - - - - - - - 22.4 1007.2 0.0
09/01:00am SSE 20 27 - - - - - - - 22.6 1007.1 0.0
09/12:30am SSE 16 24 - - - - - - - 22.9 1007.2 0.0
09/12:00am S 16 27 - - - - - - - 23.0 1007.0 0.0
 
Date/Time
EST
Wind Sea
Height
m
Swell Vis
km
Cloud Weather Temp
°C
Press
MSL
hPa
Rain since
9am
mm
Dir  Spd
kts
Gust
kts
Height
m
Period
s
Dir
08/11:53pm S 17 27 - - - - - - - 23.0 1006.9 0.0
08/11:30pm S 17 25 - - - - - - - 23.1 1006.8 0.0
08/11:07pm S 17 27 - - - - - - - 23.3 1006.6 0.0
08/11:00pm S 18 24 - - - - - - - 23.5 1006.6 0.0
08/10:47pm S 17 29 - - - - - - - 24.3 1006.3 0.0
08/10:39pm SSE 13 25 - - - - - - - 24.9 1006.0 0.0
08/10:30pm S 6 10 - - - - - - - 25.1 1005.9 0.0
08/10:00pm WSW 5 10 - - - - - - - 24.9 1004.9 0.0
08/09:30pm WNW 7 10 - - - - - - - 24.7 1003.9 0.0
08/09:00pm WNW 9 15 - - - - - - - 25.0 1003.7 0.0
08/08:30pm NW 10 15 - - - - - - - 25.4 1003.9 0.0
08/08:00pm N 9 17 - - - - - - - 25.2 1003.7 0.0
08/07:30pm N 7 11 - - - - - - - 25.1 1003.0 0.0
08/07:00pm NW 3 5 - - - - - - - 26.0 1002.2 0.0
08/06:30pm NW 9 14 - - - - - - - 26.5 1001.7 0.0
08/06:00pm NNW 9 13 - - - - - - - 27.1 1001.5 0.0
08/05:30pm NW 7 12 - - - - - - - 27.9 1001.3 0.0
08/05:00pm NNE 8 12 - - - - - - - 27.4 1001.2 0.0
08/04:30pm NNE 9 15 - - - - - - - 27.1 1000.9 0.0
08/04:00pm NNE 11 17 - - - - - - - 27.6 1000.9 0.0
08/03:30pm NNE 13 19 - - - - - - - 27.7 1000.8 0.0
08/03:00pm NNE 14 20 - - - - - - - 28.1 1001.3 0.0
08/02:30pm NNE 13 20 - - - - - - - 28.1 1001.9 0.0
08/02:00pm NNE 13 20 - - - - - - - 29.0 1002.5 0.0
08/01:30pm NNE 14 19 - - - - - - - 28.7 1003.0 0.0
08/01:00pm NE 17 21 - - - - - - - 28.3 1003.5 0.0
08/12:30pm N 11 18 - - - - - - - 29.7 1003.9 0.0
08/12:00pm N 13 21 - - - - - - - 28.7 1004.4 0.0
08/11:30am NNE 11 19 - - - - - - - 28.7 1004.9 0.0
08/11:00am N 12 23 - - - - - - - 29.0 1004.9 0.0
08/10:30am N 11 18 - - - - - - - 28.6 1005.1 0.0
08/10:00am N 11 18 - - - - - - - 27.4 1005.3 0.0
08/09:30am NNW 10 17 - - - - - - - 27.0 1005.9 0.0
08/09:00am NNW 9 14 - - - - - - - 26.6 1006.0 1.4
08/08:30am NW 7 12 - - - - - - - 26.5 1006.1 1.4
08/08:00am NW 6 9 - - - - - - - 25.5 1005.8 1.4
08/07:30am NW 5 7 - - - - - - - 25.0 1005.6 1.4
08/07:00am NNW 5 7 - - - - - - - 23.1 1005.2 1.4
08/06:30am NNW 4 7 - - - - - - - 22.5 1004.7 1.4
08/06:00am NW 8 13 - - - - - - - 22.5 1004.5 1.4
08/05:30am NW 7 10 - - - - - - - 22.5 1004.6 1.4
08/05:00am NW 13 18 - - - - - - - 22.6 1004.0 1.4
08/04:30am NNW 7 13 - - - - - - - 22.4 1002.7 1.4
08/04:00am NNW 13 20 - - - - - - - 22.7 1002.8 1.2
08/03:30am NNW 7 10 - - - - - - - 22.9 1004.4 1.2
08/03:00am NW 9 13 - - - - - - Recent precip. 23.2 1004.7 1.0
08/02:30am N 10 15 - - - - - - - 22.7 1003.2 1.0
08/02:00am N 7 10 - - - - - - - 22.5 1004.3 0.8
08/01:30am WSW 5 7 - - - - - - - 22.8 1005.4 0.6
08/01:00am W 2 6 - - - - - - - 23.2 1005.3 0.4
08/12:30am SW 5 8 - - - - - - - 23.3 1005.7 0.0
08/12:00am W 4 6 - - - - - - - 23.4 1006.0 0.0
 
Date/Time
EST
Wind Sea
Height
m
Swell Vis
km
Cloud Weather Temp
°C
Press
MSL
hPa
Rain since
9am
mm
Dir  Spd
kts
Gust
kts
Height
m
Period
s
Dir
07/11:30pm NNW 4 7 - - - - - - - 23.3 1006.4 0.0
07/11:00pm NNW 4 6 - - - - - - - 23.1 1007.0 0.0
07/10:30pm NNW 5 8 - - - - - - - 23.2 1006.4 0.0
07/10:00pm NNW 5 8 - - - - - - - 23.2 1007.3 0.0
07/09:30pm NNW 4 6 - - - - - - - 22.9 1007.1 0.0
07/09:00pm NNW 5 7 - - - - - - - 23.0 1007.3 0.0
07/08:30pm NNE 6 9 - - - - - - - 23.4 1006.7 0.0
07/08:00pm NNE 7 9 - - - - - - - 23.2 1006.1 0.0
07/07:30pm NNE 5 8 - - - - - - - 23.1 1006.4 0.0
07/07:00pm NNE 4 6 - - - - - - - 23.3 1006.3 0.0
07/06:30pm NE 5 7 - - - - - - - 23.6 1005.9 0.0
07/06:00pm NE 6 7 - - - - - - - 24.0 1005.6 0.0
07/05:30pm NE 6 8 - - - - - - - 24.9 1005.6 0.0
07/05:00pm NE 8 9 - - - - - - - 24.4 1005.3 0.0
07/04:30pm NE 7 10 - - - - - - - 25.0 1005.3 0.0
07/04:00pm ENE 9 10 - - - - - - - 24.9 1005.2 0.0
07/03:30pm ENE 9 11 - - - - - - - 25.1 1005.5 0.0
07/03:00pm NE 9 11 - - - - - - - 25.4 1006.1 0.0
07/02:30pm NE 10 12 - - - - - - - 25.6 1006.1 0.0
07/02:00pm NE 10 12 - - - - - - - 25.7 1006.3 0.0
07/01:30pm ENE 10 11 - - - - - - - 25.4 1006.5 0.0
07/01:00pm ENE 9 10 - - - - - - - 26.3 1007.0 0.0
07/12:30pm E 8 11 - - - - - - - 26.3 1007.3 0.0
07/12:00pm E 9 11 - - - - - - - 25.5 1007.6 0.0
07/11:30am ESE 10 11 - - - - - - - 25.8 1007.8 0.0
07/11:00am ESE 11 12 - - - - - - - 26.5 1008.1 0.0
07/10:30am ESE 10 11 - - - - - - - 26.1 1008.3 0.0
07/10:00am E 7 9 - - - - - - - 25.2 1008.4 0.0
07/09:30am E 7 9 - - - - - - - 24.9 1008.1 0.0
07/09:00am E 7 8 - - - - - - - 24.9 1008.4 0.0
07/08:30am E 6 7 - - - - - - - 24.3 1008.6 0.0
07/08:00am E 2 5 - - - - - - - 24.2 1008.6 0.0
07/07:30am SW 2 5 - - - - - - - 23.6 1008.6 0.0
07/07:00am WSW 3 5 - - - - - - - 22.7 1008.8 0.0
07/06:30am WSW 2 5 - - - - - - - 21.6 1008.4 0.0
07/06:00am W 3 4 - - - - - - - 20.8 1008.4 0.0
07/05:30am W 4 6 - - - - - - - 20.2 1008.0 0.0
07/05:00am SSW 4 5 - - - - - - - 19.2 1007.4 0.0
07/04:30am S 6 8 - - - - - - - 19.5 1007.3 0.0
07/04:00am SSE 8 12 - - - - - - - 20.5 1007.0 0.0
07/03:30am SSE 9 14 - - - - - - - 20.7 1006.7 0.0
07/03:00am SSE 10 14 - - - - - - - 20.8 1006.2 0.0
07/02:30am SSE 10 15 - - - - - - - 21.0 1006.5 0.0
07/02:00am SSE 12 15 - - - - - - - 21.1 1006.5 0.0
07/01:30am SSE 12 15 - - - - - - - 21.4 1006.5 0.0
07/01:00am SSE 12 17 - - - - - - - 21.7 1006.5 0.0
07/12:30am SSE 13 17 - - - - - - - 21.8 1006.7 0.0
07/12:00am SSE 13 18 - - - - - - - 22.1 1006.8 0.0
 
Date/Time
EST
Wind Sea
Height
m
Swell Vis
km
Cloud Weather Temp
°C
Press
MSL
hPa
Rain since
9am
mm
Dir  Spd
kts
Gust
kts
Height
m
Period
s
Dir
06/11:30pm SSE 14 19 - - - - - - - 22.4 1006.7 0.0
06/11:00pm SSE 16 21 - - - - - - - 22.7 1006.8 0.0
06/10:30pm SSE 14 19 - - - - - - - 23.0 1006.8 0.0
06/10:00pm SSE 15 19 - - - - - - - 23.4 1006.7 0.0

Other formats

Comma delimited format used in spreadsheet applications
http://www.bom.gov.au/fwo/IDQ60701/IDQ60701.94580.axf

JavaScript Object Notation format (JSON) in row-major order
http://www.bom.gov.au/fwo/IDQ60701/IDQ60701.94580.json

Data quality

Most of these data are generated automatically and are frequently updated. Quality checks on data are not normally performed. It is possible for incorrect values to appear. Refer to information at About Latest Weather Observations and please check the disclaimer before using these data.